TimeCDT,TemperatureF,Dew PointF,Humidity,Sea Level PressureIn,VisibilityMPH,Wind Direction,Wind SpeedMPH,Gust SpeedMPH,PrecipitationIn,Events,Conditions,WindDirDegrees,DateUTC
12:53 AM,37.0,19.9,50,30.33,10.0,Calm,Calm,-,N/A,,Partly Cloudy,0,2012-10-29 05:53:00
1:53 AM,36.0,19.9,52,30.32,10.0,SSE,3.5,-,N/A,,Partly Cloudy,150,2012-10-29 06:53:00
2:53 AM,36.0,19.9,52,30.32,10.0,ESE,4.6,-,N/A,,Overcast,120,2012-10-29 07:53:00
3:53 AM,36.0,21.0,55,30.32,10.0,Calm,Calm,-,N/A,,Overcast,0,2012-10-29 08:53:00
4:53 AM,36.0,24.1,62,30.31,10.0,ESE,3.5,-,N/A,,Overcast,120,2012-10-29 09:53:00
5:53 AM,37.0,24.1,59,30.32,10.0,SSE,5.8,-,N/A,,Overcast,150,2012-10-29 10:53:00
6:53 AM,36.0,25.0,64,30.32,10.0,SSE,3.5,-,N/A,,Overcast,150,2012-10-29 11:53:00
7:53 AM,36.0,26.1,67,30.32,10.0,ESE,4.6,-,N/A,,Overcast,120,2012-10-29 12:53:00
8:53 AM,37.9,28.0,68,30.33,10.0,SE,8.1,-,N/A,,Overcast,140,2012-10-29 13:53:00
9:53 AM,39.9,28.9,65,30.33,10.0,South,8.1,-,N/A,,Partly Cloudy,170,2012-10-29 14:53:00
10:53 AM,42.1,28.9,60,30.32,10.0,SE,11.5,-,N/A,,Overcast,140,2012-10-29 15:53:00
11:53 AM,45.0,28.9,53,30.32,10.0,SSE,11.5,-,N/A,,Overcast,150,2012-10-29 16:53:00
12:53 PM,46.9,28.9,50,30.30,10.0,SSE,12.7,-,N/A,,Mostly Cloudy,160,2012-10-29 17:53:00
1:53 PM,48.0,28.9,48,30.26,10.0,SSE,10.4,-,N/A,,Clear,150,2012-10-29 18:53:00
3:53 PM,50.0,28.0,43,30.21,10.0,SSE,11.5,-,N/A,,Clear,150,2012-10-29 20:53:00
4:53 PM,50.0,28.0,43,30.19,10.0,SE,10.4,-,N/A,,Clear,130,2012-10-29 21:53:00
5:53 PM,48.0,28.9,48,30.19,10.0,SE,5.8,-,N/A,,Clear,140,2012-10-29 22:53:00
6:53 PM,45.0,27.0,49,30.20,10.0,SE,4.6,-,N/A,,Clear,140,2012-10-29 23:53:00
7:53 PM,42.1,27.0,55,30.22,10.0,ESE,4.6,-,N/A,,Clear,110,2012-10-30 00:53:00
8:53 PM,39.0,28.9,67,30.22,10.0,East,5.8,-,N/A,,Clear,100,2012-10-30 01:53:00
9:53 PM,37.9,28.0,68,30.21,10.0,East,4.6,-,N/A,,Clear,100,2012-10-30 02:53:00
10:53 PM,37.9,28.0,68,30.20,10.0,ESE,3.5,-,N/A,,Clear,120,2012-10-30 03:53:00
11:53 PM,36.0,28.0,73,30.18,10.0,Calm,Calm,-,N/A,,Clear,0,2012-10-30 04:53:00